IN-0066 weather

Madhubani Airport
Bihar, India

Public forecast

Using degrees Celsius for public forecast. Weather courtesy of forecast.io.

Closest aviation weather report (METAR) to Madhubani Airport

Closest report is Lok Nayak Jayaprakash Airport, 68.7 nm (127.2 km) SW. Retrieved 2019/10/13 23:00 UTC (33 minutes ago):

VEPT 132300Z 00000KT 2000 BR NSC 23/22 Q1011 NOSIG

Closest aviation forecast (TAF) to Madhubani Airport

Closest forecast is Lok Nayak Jayaprakash Airport, 68.7 nm (127.2 km) SW. Retrieved 2019/10/13 18:03 UTC (5 hours ago):

TAF VEPT 131700Z 1318/1424 00000KT 3500 HZ NSC BECMG 1323/1401 1600 BR BECMG 1403/140524005KT 3500 HZ FEW020 SCT100 BECMG 1406/1408 5000 HZ BECMG 1416/1418 00000KT 3500 HZ FEW020